Time;durP1;ratioP1;P1;durP2;ratioP2;P2;SDS_P1;SDS_P2;PMS_P1;PMS_P2;Temp;Humidity;BMP_temperature;BMP_pressure;BME280_temperature;BME280_humidity;BME280_pressure;Samples;Min_cycle;Max_cycle;Signal;HPM_P1;HPM_P2
2023/04/05 04:30:42;;;;;;;14.38;9.35;;;6.80;71.90;;;;;;5814619;23;20420;-78
2023/04/05 04:33:07;;;;;;;19.70;11.43;;;6.80;71.50;;;;;;4991409;28;20041;-78
2023/04/05 04:35:33;;;;;;;20.95;10.13;;;6.90;71.30;;;;;;4979043;28;20023;-78
2023/04/05 04:38:06;;;;;;;24.35;11.90;;;6.90;71.50;;;;;;4979680;28;20041;-80
2023/04/05 04:40:40;;;;;;;18.30;10.00;;;6.90;71.10;;;;;;4980289;28;20029;-80
2023/04/05 04:43:16;;;;;;;17.05;10.80;;;7.00;71.10;;;;;;4980010;28;20034;-80
2023/04/05 04:45:47;;;;;;;18.80;9.57;;;7.00;70.50;;;;;;4979863;28;20066;-77
2023/04/05 04:48:16;;;;;;;18.13;9.55;;;7.10;70.30;;;;;;4980187;28;20033;-78
2023/04/05 04:50:43;;;;;;;18.93;9.73;;;7.00;70.40;;;;;;4978552;28;20030;-78
2023/04/05 04:53:08;;;;;;;14.57;8.45;;;7.00;70.70;;;;;;4980253;28;20448;-77
2023/04/05 04:55:35;;;;;;;17.23;9.98;;;7.00;70.20;;;;;;4978416;28;20122;-81
2023/04/05 04:58:08;;;;;;;13.23;8.70;;;6.90;71.20;;;;;;4978493;28;20536;-77
2023/04/05 05:00:35;;;;;;;14.52;9.45;;;6.90;71.10;;;;;;4978308;28;20041;-78
2023/04/05 05:03:02;;;;;;;20.52;10.48;;;7.00;71.20;;;;;;4970386;28;20370;-80
2023/04/05 05:05:28;;;;;;;20.48;9.90;;;6.90;71.10;;;;;;4998772;28;20026;-83
2023/04/05 05:07:53;;;;;;;16.25;9.98;;;7.00;71.20;;;;;;4999255;28;20594;-81
2023/04/05 05:10:19;;;;;;;17.65;10.18;;;7.00;70.80;;;;;;4981883;28;20507;-81
2023/04/05 05:12:47;;;;;;;18.98;9.63;;;7.10;70.70;;;;;;4999069;28;20528;-80
2023/04/05 05:15:13;;;;;;;20.90;10.88;;;7.10;70.60;;;;;;4999142;28;20069;-80
2023/04/05 05:17:38;;;;;;;22.95;11.60;;;7.10;71.10;;;;;;4997093;28;20037;-82
2023/04/05 05:20:09;;;;;;;19.08;10.32;;;7.10;70.80;;;;;;4998304;28;20030;-80
2023/04/05 05:22:39;;;;;;;19.77;11.35;;;7.10;71.40;;;;;;4985746;28;20042;-82
2023/04/05 05:25:06;;;;;;;17.33;11.10;;;7.00;71.40;;;;;;4998298;28;20042;-82
2023/04/05 05:27:32;;;;;;;14.32;9.93;;;7.00;71.50;;;;;;4984868;28;20034;-82
2023/04/05 05:29:58;;;;;;;20.30;11.32;;;7.00;71.40;;;;;;4978314;28;20030;-83
2023/04/05 05:32:24;;;;;;;15.90;10.27;;;7.00;70.80;;;;;;4986133;28;20517;-83
2023/04/05 05:34:50;;;;;;;17.63;9.85;;;6.90;71.10;;;;;;4984248;28;20521;-85
2023/04/05 05:37:16;;;;;;;22.88;10.98;;;6.90;70.90;;;;;;4969919;28;20026;-81
2023/04/05 05:39:43;;;;;;;18.20;10.10;;;6.90;71.40;;;;;;4981674;28;20508;-81
2023/04/05 05:42:09;;;;;;;19.45;9.30;;;6.90;71.50;;;;;;4993261;28;20490;-81
2023/04/05 05:44:35;;;;;;;18.70;10.80;;;6.80;72.00;;;;;;4977285;28;20041;-80
2023/04/05 05:47:02;;;;;;;17.40;10.90;;;6.70;72.10;;;;;;4969161;28;20018;-75
2023/04/05 05:49:27;;;;;;;20.00;9.57;;;6.80;72.10;;;;;;4979805;28;20038;-79
2023/04/05 05:51:53;;;;;;;21.38;11.35;;;6.90;71.80;;;;;;4989971;28;20038;-77
2023/04/05 05:54:19;;;;;;;18.98;10.93;;;6.80;71.40;;;;;;4976470;28;20030;-80
2023/04/05 05:56:44;;;;;;;19.92;11.52;;;6.90;71.60;;;;;;4979861;28;20031;-79
2023/04/05 05:59:10;;;;;;;24.20;12.95;;;6.90;71.40;;;;;;4978463;28;20034;-79
2023/04/05 06:01:37;;;;;;;21.50;12.45;;;7.00;70.80;;;;;;4997584;28;20116;-79
2023/04/05 06:04:03;;;;;;;23.00;12.77;;;7.10;70.50;;;;;;4977653;28;20022;-80
2023/04/05 06:06:29;;;;;;;23.25;12.15;;;7.20;70.40;;;;;;4978816;28;20022;-80
2023/04/05 06:08:55;;;;;;;28.60;13.20;;;7.20;70.50;;;;;;4978629;28;20105;-79
2023/04/05 06:11:23;;;;;;;19.95;12.35;;;7.10;70.50;;;;;;4989111;28;20050;-79
2023/04/05 06:13:54;;;;;;;17.52;10.75;;;7.20;70.40;;;;;;4993683;28;20018;-79
2023/04/05 06:16:20;;;;;;;;;;;7.20;70.40;;;;;;4978890;28;20375;-79
2023/04/05 06:18:46;;;;;;;20.83;10.88;;;7.20;70.90;;;;;;4978306;28;19968;-79
2023/04/05 06:21:12;;;;;;;21.33;11.73;;;7.30;70.80;;;;;;4978888;28;20027;-79
2023/04/05 06:23:39;;;;;;;17.92;11.38;;;7.30;71.00;;;;;;4977120;28;20040;-79
2023/04/05 06:26:05;;;;;;;18.88;11.93;;;7.40;70.30;;;;;;4978461;28;20031;-79
2023/04/05 06:28:31;;;;;;;20.10;11.00;;;7.40;70.60;;;;;;4978328;28;20026;-80
2023/04/05 06:30:58;;;;;;;21.58;10.35;;;7.50;70.40;;;;;;4978020;28;20568;-81
2023/04/05 06:33:24;;;;;;;21.25;11.93;;;7.70;69.80;;;;;;4983889;28;20026;-81
2023/04/05 06:35:49;;;;;;;22.55;12.07;;;7.70;69.50;;;;;;4997744;28;20097;-80
2023/04/05 06:38:15;;;;;;;21.80;11.80;;;7.70;69.80;;;;;;4989388;28;20031;-81
2023/04/05 06:40:41;;;;;;;21.08;10.43;;;7.80;70.10;;;;;;4977068;28;20030;-81
2023/04/05 06:43:09;;;;;;;18.10;10.57;;;7.80;69.80;;;;;;4978530;28;20023;-80
2023/04/05 06:45:35;;;;;;;21.30;11.98;;;7.90;69.70;;;;;;4978004;28;20116;-80
2023/04/05 06:48:00;;;;;;;20.00;10.90;;;8.00;69.30;;;;;;4969432;28;20034;-80
2023/04/05 06:50:26;;;;;;;20.25;11.48;;;8.10;69.00;;;;;;4978002;28;20039;-80
2023/04/05 06:52:52;;;;;;;21.25;12.05;;;8.10;69.10;;;;;;4960561;28;20035;-80
2023/04/05 06:55:17;;;;;;;17.33;11.63;;;8.20;68.70;;;;;;4960550;28;20046;-80
2023/04/05 06:57:43;;;;;;;15.63;10.10;;;8.30;68.60;;;;;;4984005;28;20027;-80
2023/04/05 07:00:10;;;;;;;16.77;11.15;;;8.50;68.10;;;;;;4997372;28;20069;-80
2023/04/05 07:02:36;;;;;;;15.55;9.82;;;8.30;67.90;;;;;;4997001;28;20015;-80
2023/04/05 07:05:04;;;;;;;16.27;10.40;;;8.40;68.20;;;;;;4992812;28;20025;-80
2023/04/05 07:07:41;;;;;;;15.38;9.40;;;8.30;67.70;;;;;;4977777;28;20038;-79
2023/04/05 07:10:07;;;;;;;18.80;10.73;;;8.50;68.10;;;;;;4996190;28;20053;-78
2023/04/05 07:12:33;;;;;;;18.23;9.82;;;8.40;67.10;;;;;;4997093;28;20061;-79
2023/04/05 07:14:59;;;;;;;16.52;10.18;;;8.30;67.60;;;;;;4984483;28;20038;-79
2023/04/05 07:17:25;;;;;;;19.13;9.30;;;8.50;67.30;;;;;;4977518;28;20049;-79
2023/04/05 07:19:50;;;;;;;17.45;10.00;;;8.60;67.20;;;;;;4977047;28;20035;-79
2023/04/05 07:22:16;;;;;;;15.60;8.77;;;8.50;66.50;;;;;;4983744;28;20035;-79
2023/04/05 07:24:44;;;;;;;17.10;10.32;;;8.40;66.80;;;;;;4977484;28;20030;-80
2023/04/05 07:27:10;;;;;;;15.35;10.05;;;8.50;67.00;;;;;;4977911;28;20485;-80
2023/04/05 07:29:39;;;;;;;14.95;8.95;;;8.60;66.50;;;;;;4977223;28;20039;-80
2023/04/05 07:32:06;;;;;;;13.40;9.35;;;8.60;66.90;;;;;;4977284;28;20051;-81
2023/04/05 07:34:32;;;;;;;13.13;9.43;;;8.70;66.00;;;;;;4976412;28;20030;-80
2023/04/05 07:36:58;;;;;;;16.75;9.60;;;8.70;66.60;;;;;;4980075;28;20027;-80
2023/04/05 07:39:24;;;;;;;10.77;8.40;;;8.90;66.60;;;;;;4977120;28;20043;-80
2023/04/05 07:41:50;;;;;;;16.83;9.82;;;9.10;66.40;;;;;;4980947;28;20026;-81
2023/04/05 07:44:16;;;;;;;15.25;10.00;;;9.20;65.60;;;;;;4991225;28;20576;-81
2023/04/05 07:46:43;;;;;;;15.07;8.82;;;9.20;64.90;;;;;;4977016;28;20026;-78
2023/04/05 07:49:10;;;;;;;19.55;11.02;;;9.20;65.60;;;;;;4977332;28;20077;-79
2023/04/05 07:51:37;;;;;;;16.40;10.27;;;9.30;64.90;;;;;;4975913;28;20026;-79
2023/04/05 07:54:04;;;;;;;20.40;11.88;;;9.40;65.00;;;;;;4977442;28;20027;-80
2023/04/05 07:56:31;;;;;;;16.48;9.52;;;9.50;64.80;;;;;;4978833;28;20031;-80
2023/04/05 07:58:57;;;;;;;16.63;9.80;;;9.70;64.60;;;;;;4959551;28;20134;-80
2023/04/05 08:01:26;;;;;;;16.63;9.63;;;9.90;64.30;;;;;;4971542;28;20031;-81
2023/04/05 08:03:58;;;;;;;13.73;9.57;;;10.20;63.60;;;;;;4991334;28;20022;-81
2023/04/05 08:06:23;;;;;;;15.20;9.20;;;10.10;62.60;;;;;;4996356;28;20038;-81
2023/04/05 08:08:49;;;;;;;13.05;8.93;;;10.30;63.10;;;;;;4999901;28;20034;-81
2023/04/05 08:11:15;;;;;;;18.58;10.38;;;10.50;63.00;;;;;;4993551;28;20034;-80
2023/04/05 08:13:41;;;;;;;16.33;9.82;;;10.80;62.30;;;;;;5000432;28;20132;-81
2023/04/05 08:16:07;;;;;;;16.52;9.93;;;10.80;61.70;;;;;;5000187;28;20081;-81
2023/04/05 08:18:33;;;;;;;14.60;8.68;;;11.10;61.70;;;;;;5000197;28;20026;-81
2023/04/05 08:20:59;;;;;;;15.35;9.25;;;11.00;61.60;;;;;;4982547;28;20037;-80
2023/04/05 08:23:25;;;;;;;17.85;10.40;;;11.50;61.60;;;;;;4963553;28;20054;-80
2023/04/05 08:25:52;;;;;;;17.42;9.90;;;11.70;59.40;;;;;;4981345;28;20026;-81
2023/04/05 08:28:17;;;;;;;16.80;9.55;;;12.00;58.80;;;;;;4979636;28;20026;-80
2023/04/05 08:30:44;;;;;;;15.98;9.68;;;12.50;58.60;;;;;;4980655;28;20105;-80
2023/04/05 08:33:09;;;;;;;14.02;9.13;;;12.80;56.90;;;;;;4986083;28;20464;-80
2023/04/05 08:35:36;;;;;;;15.65;9.13;;;12.90;57.10;;;;;;4987253;28;20038;-80
2023/04/05 08:38:03;;;;;;;13.77;8.07;;;13.30;56.10;;;;;;4980533;28;20127;-79
2023/04/05 08:40:39;;;;;;;18.45;10.30;;;13.60;54.90;;;;;;4979033;28;20027;-79
2023/04/05 08:43:27;;;;;;;15.93;9.48;;;13.80;52.90;;;;;;4979235;28;20050;-79
2023/04/05 08:45:53;;;;;;;14.20;8.48;;;13.60;54.40;;;;;;4980141;28;20509;-79
2023/04/05 08:48:19;;;;;;;12.70;9.05;;;13.70;55.20;;;;;;4982501;28;20470;-79
2023/04/05 08:50:52;;;;;;;16.38;10.15;;;13.70;54.80;;;;;;4980173;28;20019;-79
2023/04/05 08:53:19;;;;;;;12.63;9.18;;;13.30;54.60;;;;;;4980647;28;20533;-79
2023/04/05 08:55:50;;;;;;;13.95;8.48;;;13.00;56.20;;;;;;4980052;28;20029;-79
2023/04/05 08:58:17;;;;;;;13.93;8.70;;;13.00;57.00;;;;;;4978918;28;20034;-79
2023/04/05 09:00:43;;;;;;;21.45;11.05;;;13.00;57.80;;;;;;4995065;28;20052;-79
2023/04/05 09:03:16;;;;;;;14.30;9.05;;;12.80;56.60;;;;;;4998995;28;20030;-79
2023/04/05 09:05:48;;;;;;;18.38;8.93;;;12.70;58.00;;;;;;4978061;28;20055;-79
2023/04/05 09:08:15;;;;;;;12.07;8.43;;;12.70;58.20;;;;;;4979879;28;20023;-79
2023/04/05 09:10:41;;;;;;;15.52;9.55;;;12.60;58.10;;;;;;4984846;28;20490;-79
2023/04/05 09:13:07;;;;;;;16.20;8.35;;;12.40;59.20;;;;;;4999219;28;20031;-79
2023/04/05 09:15:35;;;;;;;15.82;8.88;;;12.50;59.10;;;;;;4981292;28;20030;-79
2023/04/05 09:18:01;;;;;;;14.75;8.80;;;12.40;58.10;;;;;;4981842;28;20030;-79
2023/04/05 09:20:26;;;;;;;18.55;9.52;;;12.50;59.00;;;;;;4997532;28;20037;-79
2023/04/05 09:22:55;;;;;;;16.45;8.95;;;12.60;59.00;;;;;;4991794;28;20027;-79
2023/04/05 09:25:41;;;;;;;13.77;8.85;;;12.70;58.50;;;;;;4979628;28;20027;-79
2023/04/05 09:28:08;;;;;;;15.50;9.80;;;12.60;58.20;;;;;;4979973;28;20031;-78
2023/04/05 09:30:36;;;;;;;15.43;9.57;;;12.20;56.10;;;;;;4979309;28;20034;-80
2023/04/05 09:33:02;;;;;;;12.88;8.77;;;12.60;57.10;;;;;;4984056;28;20019;-79
2023/04/05 09:35:30;;;;;;;17.75;9.50;;;14.30;55.00;;;;;;4988288;28;20026;-80
2023/04/05 09:37:58;;;;;;;17.00;10.07;;;15.70;51.40;;;;;;4978223;28;20034;-79
2023/04/05 09:40:39;;;;;;;15.07;9.20;;;16.30;49.60;;;;;;4979199;28;20033;-80
2023/04/05 09:43:04;;;;;;;16.52;11.35;;;16.80;48.00;;;;;;4979331;28;20485;-80
2023/04/05 09:45:46;;;;;;;13.50;8.70;;;16.70;46.20;;;;;;4979108;28;20058;-80
2023/04/05 09:48:12;;;;;;;12.38;8.77;;;16.90;46.80;;;;;;4980628;28;20110;-80
2023/04/05 09:50:38;;;;;;;16.05;9.43;;;17.20;46.00;;;;;;4981275;28;20031;-79
2023/04/05 09:53:09;;;;;;;13.65;8.52;;;17.40;44.80;;;;;;4979198;28;20090;-80
2023/04/05 09:55:35;;;;;;;10.82;7.40;;;18.00;43.60;;;;;;4979566;28;20517;-80
2023/04/05 09:58:02;;;;;;;13.38;8.40;;;18.30;42.20;;;;;;4979016;28;20097;-80
2023/04/05 10:00:31;;;;;;;11.43;8.15;;;18.60;42.90;;;;;;4979206;28;20031;-79
2023/04/05 10:02:56;;;;;;;10.73;8.27;;;18.70;40.80;;;;;;4986265;28;20014;-80
2023/04/05 10:05:28;;;;;;;13.07;8.48;;;18.80;41.10;;;;;;4998170;28;20488;-80
2023/04/05 10:07:55;;;;;;;13.52;8.32;;;18.80;41.20;;;;;;4989323;28;20058;-80
2023/04/05 10:10:22;;;;;;;12.30;8.10;;;19.10;42.20;;;;;;4981126;28;20082;-79
2023/04/05 10:12:49;;;;;;;14.00;9.13;;;19.10;41.50;;;;;;4998143;28;20120;-79
2023/04/05 10:15:15;;;;;;;12.07;8.55;;;19.00;40.80;;;;;;4980891;28;20033;-80
2023/04/05 10:17:48;;;;;;;14.60;9.38;;;18.80;42.20;;;;;;4993626;28;20045;-79
2023/04/05 10:20:16;;;;;;;12.70;8.27;;;18.60;40.60;;;;;;4997792;28;20504;-80
2023/04/05 10:23:00;;;;;;;14.68;8.13;;;18.30;42.00;;;;;;4998005;28;20043;-80
2023/04/05 10:25:44;;;;;;;13.90;8.07;;;17.70;43.40;;;;;;4996916;28;20109;-81
2023/04/05 10:28:15;;;;;;;13.80;8.10;;;17.60;45.20;;;;;;4976861;28;20482;-82
2023/04/05 10:30:46;;;;;;;12.82;8.65;;;17.30;44.40;;;;;;4976493;28;20050;-82
2023/04/05 10:33:20;;;;;;;12.60;8.32;;;17.30;45.30;;;;;;4980497;28;20023;-82
2023/04/05 10:36:01;;;;;;;10.48;6.63;;;17.30;44.60;;;;;;4976024;28;20026;-82
2023/04/05 10:38:28;;;;;;;14.65;7.82;;;17.10;43.80;;;;;;4960940;28;20031;-82
2023/04/05 10:41:11;;;;;;;15.32;9.15;;;17.10;45.90;;;;;;4960927;28;20529;-82
2023/04/05 10:43:39;;;;;;;16.92;7.72;;;17.00;45.80;;;;;;4997527;28;20081;-81
2023/04/05 10:46:06;;;;;;;12.25;7.63;;;16.90;45.30;;;;;;4997418;28;20104;-81
2023/04/05 10:48:50;;;;;;;10.20;6.80;;;16.80;45.00;;;;;;4981273;28;20019;-82
2023/04/05 10:51:15;;;;;;;10.40;6.68;;;16.80;45.20;;;;;;4977912;28;20482;-82
2023/04/05 10:53:42;;;;;;;13.38;7.70;;;16.80;45.50;;;;;;4978717;28;20097;-82
2023/04/05 10:56:08;;;;;;;10.85;6.90;;;16.90;45.10;;;;;;4977866;28;20475;-82
2023/04/05 10:58:36;;;;;;;15.10;7.10;;;17.10;45.50;;;;;;4974106;28;20030;-82
2023/04/05 11:01:03;;;;;;;12.40;6.95;;;17.00;43.80;;;;;;4997075;28;20217;-82
2023/04/05 11:03:44;;;;;;;13.82;7.32;;;17.00;43.80;;;;;;4991111;28;20022;-82
2023/04/05 11:06:24;;;;;;;12.60;6.82;;;16.80;43.90;;;;;;4997139;28;21513;-82
2023/04/05 11:08:54;;;;;;;10.95;7.18;;;16.80;44.80;;;;;;4996704;28;20489;-81
2023/04/05 11:11:21;;;;;;;13.65;8.38;;;16.80;44.00;;;;;;4970687;28;20034;-81
2023/04/05 11:13:58;;;;;;;13.75;6.78;;;16.90;44.10;;;;;;4996678;28;20026;-82
2023/04/05 11:16:38;;;;;;;11.48;6.85;;;16.90;44.00;;;;;;4995886;28;20036;-81
2023/04/05 11:19:04;;;;;;;11.82;7.28;;;16.90;44.30;;;;;;4977337;28;20034;-82
2023/04/05 11:21:30;;;;;;;12.15;6.95;;;16.90;44.60;;;;;;4977457;28;20118;-82
2023/04/05 11:24:05;;;;;;;10.27;6.47;;;16.80;43.90;;;;;;4976171;28;20019;-82
2023/04/05 11:26:46;;;;;;;10.18;6.28;;;16.80;44.20;;;;;;4977304;28;20034;-81
2023/04/05 11:29:14;;;;;;;10.80;5.85;;;16.90;43.60;;;;;;4977410;28;20034;-81
2023/04/05 11:31:59;;;;;;;8.75;6.07;;;16.80;42.80;;;;;;4977071;28;20117;-81
2023/04/05 11:34:25;;;;;;;11.30;5.80;;;16.80;41.60;;;;;;4979068;28;20369;-82
2023/04/05 11:36:51;;;;;;;8.35;5.57;;;16.80;42.20;;;;;;4994971;28;20092;-81
2023/04/05 11:39:22;;;;;;;7.60;4.97;;;16.90;42.80;;;;;;4977194;28;20058;-82
2023/04/05 11:42:04;;;;;;;9.77;5.47;;;17.00;41.10;;;;;;4988825;28;20114;-82
2023/04/05 11:44:40;;;;;;;9.63;5.90;;;17.00;40.20;;;;;;4977435;28;20034;-82
2023/04/05 11:47:06;;;;;;;9.05;5.30;;;17.00;43.70;;;;;;4977458;28;20046;-82
2023/04/05 11:49:32;;;;;;;11.00;5.75;;;17.10;42.80;;;;;;4977035;28;20030;-82
2023/04/05 11:52:08;;;;;;;10.38;6.13;;;17.20;42.60;;;;;;4977243;28;20038;-80
2023/04/05 11:54:34;;;;;;;11.95;6.20;;;17.30;44.20;;;;;;4990278;28;20076;-80
2023/04/05 11:57:00;;;;;;;9.85;6.03;;;17.30;42.70;;;;;;4967344;28;20030;-80
2023/04/05 11:59:34;;;;;;;9.38;5.20;;;17.30;42.70;;;;;;4987693;28;20753;-81
2023/04/05 12:02:02;;;;;;;13.00;5.65;;;17.30;40.30;;;;;;4984374;28;20465;-81
2023/04/05 12:04:29;;;;;;;8.70;5.57;;;17.40;41.30;;;;;;4987484;28;20023;-81
2023/04/05 12:07:18;;;;;;;12.57;6.40;;;17.50;41.30;;;;;;4985208;28;20022;-80
2023/04/05 12:10:02;;;;;;;9.95;6.45;;;17.50;41.40;;;;;;4990036;28;20031;-80
2023/04/05 12:12:34;;;;;;;10.73;5.82;;;17.60;42.10;;;;;;4984813;28;20088;-81
2023/04/05 12:15:03;;;;;;;11.30;6.13;;;17.70;41.90;;;;;;4984788;28;20109;-81
2023/04/05 12:17:41;;;;;;;8.88;5.72;;;17.80;41.80;;;;;;4987156;28;20031;-81
2023/04/05 12:20:08;;;;;;;11.27;6.05;;;17.60;41.90;;;;;;4983918;28;20036;-81
2023/04/05 12:22:35;;;;;;;11.43;6.65;;;17.70;43.70;;;;;;4986775;28;20018;-80
2023/04/05 12:25:01;;;;;;;9.50;5.63;;;17.80;43.30;;;;;;4982681;28;20091;-80
2023/04/05 12:27:27;;;;;;;10.70;6.53;;;17.80;41.30;;;;;;4985537;28;20026;-80
2023/04/05 12:30:09;;;;;;;10.82;5.97;;;17.80;41.40;;;;;;4984171;28;20132;-80
2023/04/05 12:32:57;;;;;;;11.35;5.85;;;17.70;40.70;;;;;;4986114;28;20563;-80
2023/04/05 12:35:31;;;;;;;10.82;5.95;;;17.70;39.50;;;;;;4986665;28;20041;-81
2023/04/05 12:38:04;;;;;;;12.27;6.63;;;17.80;40.30;;;;;;4987804;28;20027;-80
2023/04/05 12:40:32;;;;;;;9.38;6.10;;;17.80;40.30;;;;;;4985768;28;20437;-80
2023/04/05 12:43:05;;;;;;;9.32;6.30;;;17.90;41.20;;;;;;4985989;28;20152;-81
2023/04/05 12:45:38;;;;;;;11.35;6.85;;;17.90;40.10;;;;;;4967897;28;20027;-80
2023/04/05 12:48:06;;;;;;;11.85;6.57;;;17.80;41.00;;;;;;4983495;28;20019;-80
2023/04/05 12:50:32;;;;;;;8.35;5.75;;;17.80;41.90;;;;;;4985397;28;20140;-81
2023/04/05 12:53:04;;;;;;;12.40;6.78;;;17.70;42.20;;;;;;4985962;28;20042;-81
2023/04/05 12:55:30;;;;;;;11.65;6.47;;;17.70;43.40;;;;;;4992525;28;20038;-81
2023/04/05 12:58:00;;;;;;;14.68;6.40;;;17.70;42.80;;;;;;4995937;28;20034;-81
2023/04/05 13:00:28;;;;;;;10.85;6.45;;;17.70;42.50;;;;;;4987040;28;20089;-81
2023/04/05 13:02:55;;;;;;;11.45;6.88;;;17.80;41.50;;;;;;4991672;28;20022;-81
2023/04/05 13:05:26;;;;;;;10.93;6.32;;;17.70;42.60;;;;;;4971345;28;20392;-80
2023/04/05 13:07:52;;;;;;;11.13;5.57;;;17.70;43.30;;;;;;4990892;28;20026;-81
2023/04/05 13:10:19;;;;;;;12.52;6.68;;;17.80;42.50;;;;;;4991425;28;20113;-81
2023/04/05 13:12:45;;;;;;;10.40;5.95;;;17.80;41.00;;;;;;4988182;28;20101;-81
2023/04/05 13:15:13;;;;;;;11.45;6.90;;;17.90;42.20;;;;;;4989643;28;20082;-81
2023/04/05 13:17:39;;;;;;;10.57;5.38;;;17.90;42.00;;;;;;4988622;28;20027;-81
2023/04/05 13:20:05;;;;;;;12.10;6.53;;;18.00;42.10;;;;;;4972476;28;20058;-81
2023/04/05 13:22:31;;;;;;;11.27;6.72;;;18.00;42.80;;;;;;4988180;28;20019;-81
2023/04/05 13:24:57;;;;;;;9.63;6.07;;;17.90;41.20;;;;;;4990984;28;20019;-81
2023/04/05 13:27:22;;;;;;;9.93;6.10;;;17.80;41.90;;;;;;4988190;28;20022;-81
2023/04/05 13:29:48;;;;;;;8.82;5.70;;;17.80;42.10;;;;;;4989887;28;20040;-81
2023/04/05 13:32:14;;;;;;;9.43;6.00;;;17.80;41.70;;;;;;4970335;28;20066;-81
2023/04/05 13:34:39;;;;;;;10.95;6.03;;;17.80;41.80;;;;;;4974976;28;20032;-81
2023/04/05 13:37:05;;;;;;;10.18;6.03;;;17.80;41.10;;;;;;4990688;28;20109;-80
2023/04/05 13:39:31;;;;;;;11.93;6.45;;;17.80;41.70;;;;;;4987869;28;20027;-81
2023/04/05 13:41:56;;;;;;;10.18;6.30;;;18.00;41.40;;;;;;4990643;28;20030;-81
2023/04/05 13:44:22;;;;;;;11.07;5.78;;;18.00;41.70;;;;;;4989965;28;20023;-81
2023/04/05 13:46:48;;;;;;;10.85;6.07;;;18.10;40.10;;;;;;4988398;28;20557;-81
2023/04/05 13:49:14;;;;;;;10.43;4.97;;;18.20;39.90;;;;;;4988178;28;20132;-81
2023/04/05 13:51:40;;;;;;;9.55;5.32;;;18.20;38.30;;;;;;4970592;28;20014;-81
2023/04/05 13:54:12;;;;;;;10.38;5.90;;;18.20;39.00;;;;;;4985945;28;20493;-81
2023/04/05 13:56:38;;;;;;;9.00;4.75;;;18.30;38.90;;;;;;4978832;28;20102;-81
2023/04/05 13:59:04;;;;;;;7.80;4.85;;;18.20;36.60;;;;;;4969467;28;20090;-81
2023/04/05 14:01:31;;;;;;;11.00;5.55;;;18.10;38.20;;;;;;4971766;28;20027;-81
2023/04/05 14:03:57;;;;;;;7.32;4.93;;;18.00;37.80;;;;;;4993282;28;20074;-81
2023/04/05 14:06:23;;;;;;;9.70;6.05;;;17.90;39.70;;;;;;4969074;28;20034;-81
2023/04/05 14:08:53;;;;;;;9.65;5.20;;;17.80;39.70;;;;;;4989032;28;20042;-81
2023/04/05 14:11:21;;;;;;;6.65;5.10;;;17.80;39.20;;;;;;4973748;28;20031;-80
2023/04/05 14:13:47;;;;;;;7.72;4.93;;;17.70;39.30;;;;;;4970273;28;20022;-81
2023/04/05 14:16:12;;;;;;;6.68;4.70;;;17.70;39.70;;;;;;4986101;28;20039;-81
2023/04/05 14:18:38;;;;;;;10.07;6.20;;;17.70;40.50;;;;;;4988150;28;20066;-81
2023/04/05 14:21:04;;;;;;;9.10;6.25;;;17.70;41.80;;;;;;4986647;28;20065;-81
2023/04/05 14:23:30;;;;;;;9.60;6.93;;;17.70;42.00;;;;;;4969547;28;20034;-85
2023/04/05 14:25:55;;;;;;;8.65;6.93;;;17.70;42.10;;;;;;4978359;28;20031;-83
2023/04/05 14:28:21;;;;;;;9.40;5.65;;;17.60;41.70;;;;;;4980840;28;20035;-84
2023/04/05 14:30:47;;;;;;;9.07;5.70;;;17.70;41.80;;;;;;4988406;28;20062;-81
2023/04/05 14:33:15;;;;;;;9.85;6.60;;;17.70;41.90;;;;;;4995062;28;20082;-81
2023/04/05 14:35:44;;;;;;;10.55;6.63;;;17.80;42.50;;;;;;4997435;28;20030;-81
2023/04/05 14:38:09;;;;;;;9.70;6.00;;;17.80;42.80;;;;;;4992847;28;20031;-81
2023/04/05 14:40:35;;;;;;;8.80;5.90;;;17.80;43.20;;;;;;4988543;28;20045;-87
2023/04/05 14:43:02;;;;;;;11.30;5.68;;;17.70;44.10;;;;;;4978186;28;20030;-83
2023/04/05 14:45:47;;;;;;;11.25;6.10;;;17.80;44.60;;;;;;4992934;28;20026;-88
2023/04/05 14:48:12;;;;;;;12.32;6.28;;;17.80;45.30;;;;;;4971197;28;20077;-81
2023/04/05 14:50:47;;;;;;;10.10;6.30;;;17.80;44.70;;;;;;4971972;28;20026;-90
2023/04/05 14:53:13;;;;;;;9.15;5.53;;;17.80;44.60;;;;;;4988078;28;20033;-82
2023/04/05 14:55:41;;;;;;;13.43;6.95;;;17.90;44.00;;;;;;4988666;28;20405;-81
2023/04/05 14:58:07;;;;;;;10.95;6.15;;;17.90;43.10;;;;;;4994584;28;20030;-84
2023/04/05 15:00:35;;;;;;;10.82;6.15;;;18.00;43.40;;;;;;4988226;28;20038;-84
2023/04/05 15:03:01;;;;;;;10.38;5.45;;;18.10;42.70;;;;;;4975760;28;20059;-83
2023/04/05 15:05:29;;;;;;;8.85;6.40;;;18.10;43.60;;;;;;4979273;28;20057;-79
2023/04/05 15:07:57;;;;;;;12.52;5.72;;;18.20;43.60;;;;;;4979782;28;20035;-84
2023/04/05 15:10:23;;;;;;;9.38;5.43;;;18.20;43.10;;;;;;4994138;28;20504;-78
2023/04/05 15:12:49;;;;;;;8.50;5.47;;;18.20;43.60;;;;;;4996851;28;20027;-80
2023/04/05 15:15:17;;;;;;;10.88;5.72;;;18.20;42.90;;;;;;4996667;28;20043;-85
2023/04/05 15:17:46;;;;;;;9.43;5.03;;;18.30;41.80;;;;;;4995910;28;20179;-82
2023/04/05 15:20:12;;;;;;;7.95;5.53;;;18.30;41.40;;;;;;4978633;28;20038;-85
2023/04/05 15:22:39;;;;;;;10.50;5.60;;;18.20;41.60;;;;;;4996832;28;20022;-83
2023/04/05 15:25:06;;;;;;;9.25;5.30;;;18.20;41.20;;;;;;4979213;28;20038;-83
2023/04/05 15:27:32;;;;;;;10.07;5.72;;;18.20;41.80;;;;;;4989919;28;20092;-85
2023/04/05 15:29:58;;;;;;;11.68;6.32;;;18.20;42.40;;;;;;4996038;28;20034;-84
2023/04/05 15:32:24;;;;;;;11.63;6.53;;;18.10;42.20;;;;;;4990479;28;20058;-85
2023/04/05 15:34:50;;;;;;;8.35;5.22;;;18.20;41.80;;;;;;4974849;28;20142;-85
2023/04/05 15:37:24;;;;;;;8.85;5.18;;;18.20;43.20;;;;;;4970192;28;20031;-85
2023/04/05 15:39:50;;;;;;;10.27;5.80;;;18.30;43.70;;;;;;4983656;28;20034;-84
2023/04/05 15:42:17;;;;;;;10.23;5.53;;;18.30;43.00;;;;;;4967161;28;20521;-83
2023/04/05 15:44:43;;;;;;;7.63;5.50;;;18.30;42.60;;;;;;4966606;28;20027;-81
2023/04/05 15:47:09;;;;;;;9.00;6.00;;;18.30;42.20;;;;;;4985603;28;20448;-82
2023/04/05 15:49:35;;;;;;;8.40;5.32;;;18.30;42.60;;;;;;4982717;28;20034;-82
2023/04/05 15:52:01;;;;;;;11.10;6.05;;;18.30;42.90;;;;;;4991945;28;20023;-79
2023/04/05 15:54:27;;;;;;;10.63;6.13;;;18.20;44.00;;;;;;4980629;28;20105;-84
2023/04/05 15:56:52;;;;;;;8.55;5.00;;;18.10;43.10;;;;;;4994425;28;20034;-84
2023/04/05 15:59:18;;;;;;;10.45;5.60;;;18.00;44.50;;;;;;4979898;28;20406;-83
2023/04/05 16:01:44;;;;;;;11.43;6.35;;;18.00;44.20;;;;;;4989247;28;20032;-79
2023/04/05 16:04:09;;;;;;;9.98;5.70;;;17.80;43.30;;;;;;4989138;28;20034;-80
2023/04/05 16:06:35;;;;;;;9.95;5.93;;;17.90;43.60;;;;;;4985333;28;20034;-82
2023/04/05 16:09:01;;;;;;;7.13;5.15;;;17.90;44.30;;;;;;4987243;28;20053;-82
2023/04/05 16:11:26;;;;;;;10.75;5.78;;;17.90;44.90;;;;;;4986267;28;20086;-83
2023/04/05 16:13:53;;;;;;;11.80;6.38;;;17.90;44.70;;;;;;4986385;28;20026;-79
2023/04/05 16:16:18;;;;;;;10.50;6.47;;;17.80;45.30;;;;;;4964959;28;20038;-79
2023/04/05 16:18:44;;;;;;;9.30;6.43;;;17.80;44.70;;;;;;4976496;28;20038;-79
2023/04/05 16:21:10;;;;;;;11.25;6.35;;;17.70;45.20;;;;;;4974618;28;20049;-78
2023/04/05 16:23:37;;;;;;;9.90;5.95;;;17.60;46.00;;;;;;4984289;28;20123;-79
2023/04/05 16:26:03;;;;;;;7.55;6.07;;;17.60;45.60;;;;;;4974699;28;20054;-79
2023/04/05 16:28:30;;;;;;;10.88;6.53;;;17.50;45.60;;;;;;4969482;28;20760;-80
2023/04/05 16:30:56;;;;;;;10.93;6.25;;;17.50;46.00;;;;;;4962409;28;20055;-79
2023/04/05 16:33:21;;;;;;;8.35;6.32;;;17.50;45.80;;;;;;4974394;28;20389;-76
2023/04/05 16:35:47;;;;;;;9.30;6.30;;;17.40;46.00;;;;;;4999725;28;20026;-79
2023/04/05 16:38:13;;;;;;;10.00;5.90;;;17.40;46.30;;;;;;4994081;28;20041;-80
2023/04/05 16:40:39;;;;;;;9.73;6.63;;;17.30;46.60;;;;;;4990180;28;20026;-86
2023/04/05 16:43:14;;;;;;;9.65;7.13;;;17.30;46.30;;;;;;4981744;28;20519;-85
2023/04/05 16:45:40;;;;;;;10.70;6.10;;;17.20;46.20;;;;;;4982236;28;20029;-82
2023/04/05 16:48:07;;;;;;;10.90;6.72;;;17.30;46.60;;;;;;4967669;28;20031;-85
2023/04/05 16:50:33;;;;;;;10.40;6.10;;;17.20;46.80;;;;;;4970210;28;20034;-82
2023/04/05 16:52:59;;;;;;;12.05;6.75;;;17.10;47.50;;;;;;4991903;28;20390;-78
2023/04/05 16:55:24;;;;;;;9.35;6.38;;;17.10;47.10;;;;;;4996173;28;20061;-81
2023/04/05 16:57:52;;;;;;;11.73;6.78;;;17.00;47.50;;;;;;4980981;28;20065;-78
2023/04/05 17:00:18;;;;;;;11.57;6.45;;;17.10;48.30;;;;;;4998698;28;20026;-76
2023/04/05 17:02:44;;;;;;;10.60;6.95;;;17.10;48.30;;;;;;4995464;28;20038;-77
2023/04/05 17:05:10;;;;;;;10.98;7.15;;;17.00;47.60;;;;;;4989713;28;20405;-77
2023/04/05 17:07:36;;;;;;;14.13;7.80;;;17.00;47.90;;;;;;4997668;28;20093;-74
2023/04/05 17:10:03;;;;;;;12.70;7.85;;;17.00;47.60;;;;;;4997399;28;20022;-75
2023/04/05 17:12:29;;;;;;;12.55;7.65;;;17.00;48.50;;;;;;4991665;28;20034;-75
2023/04/05 17:14:54;;;;;;;12.82;7.25;;;16.90;48.50;;;;;;4968662;28;20034;-76